createdAt,value
2019-02-16T00:01:41.824Z,39.28
2019-02-16T00:06:41.245Z,39.23
2019-02-16T00:09:11.615Z,39.15
2019-02-16T00:11:41.954Z,39.19
2019-02-16T00:14:12.197Z,39.08
2019-02-16T00:16:42.538Z,39.08
2019-02-16T00:19:12.897Z,39.22
2019-02-16T00:21:43.253Z,39.24
2019-02-16T00:24:13.634Z,39.11
2019-02-16T00:26:44.016Z,39.04
2019-02-16T00:29:14.377Z,39.16
2019-02-16T00:31:44.735Z,39.16
2019-02-16T00:34:15.133Z,39.00
2019-02-16T00:36:45.498Z,38.97
2019-02-16T00:39:15.832Z,38.94
2019-02-16T00:41:46.169Z,38.95
2019-02-16T00:44:16.455Z,39.00
2019-02-16T00:46:47.075Z,39.07
2019-02-16T00:49:17.566Z,38.96
2019-02-16T00:51:48.154Z,38.86
2019-02-16T00:54:18.498Z,38.83
2019-02-16T00:56:48.891Z,38.95
2019-02-16T00:59:19.231Z,38.99
2019-02-16T01:01:49.615Z,38.97
2019-02-16T01:04:19.903Z,38.82
2019-02-16T01:06:50.473Z,38.73
2019-02-16T01:09:20.799Z,38.76
2019-02-16T01:11:51.095Z,38.84
2019-02-16T01:14:21.458Z,38.87
2019-02-16T01:16:51.864Z,38.84
2019-02-16T01:19:22.143Z,38.84
2019-02-16T01:21:52.431Z,38.83
2019-02-16T01:24:22.765Z,38.75
2019-02-16T01:26:53.194Z,38.73
2019-02-16T01:29:23.487Z,38.76
2019-02-16T01:31:53.861Z,38.70
2019-02-16T01:34:24.129Z,38.79
2019-02-16T01:36:54.480Z,38.81
2019-02-16T01:39:24.851Z,38.73
2019-02-16T01:41:55.184Z,38.65
2019-02-16T01:44:25.544Z,38.77
2019-02-16T01:46:55.839Z,38.74
2019-02-16T01:49:26.153Z,38.72
2019-02-16T01:51:56.430Z,38.75
2019-02-16T01:54:26.729Z,38.76
2019-02-16T01:56:57.096Z,38.71
2019-02-16T01:59:27.445Z,38.71
2019-02-16T02:01:57.850Z,38.55
2019-02-16T02:04:28.255Z,38.58
2019-02-16T02:06:58.758Z,38.56
2019-02-16T02:09:29.061Z,38.44
2019-02-16T02:11:59.493Z,38.48
2019-02-16T02:14:29.808Z,38.44
2019-02-16T02:17:00.019Z,38.52
2019-02-16T02:19:30.297Z,38.49
2019-02-16T02:22:00.663Z,38.45
2019-02-16T02:24:32.146Z,38.44
2019-02-16T02:27:04.815Z,38.45
2019-02-16T02:29:35.221Z,38.40
2019-02-16T02:32:05.546Z,38.31
2019-02-16T02:34:35.940Z,38.31
2019-02-16T02:37:06.287Z,38.40
2019-02-16T02:39:36.608Z,38.37
2019-02-16T02:42:07.025Z,38.42
2019-02-16T02:44:37.326Z,38.39
2019-02-16T02:47:07.774Z,38.33
2019-02-16T02:49:38.510Z,38.23
2019-02-16T02:52:08.880Z,38.29
2019-02-16T02:54:39.287Z,38.32
2019-02-16T02:57:09.576Z,38.30
2019-02-16T02:59:39.924Z,38.17
2019-02-16T03:02:10.172Z,38.22
2019-02-16T03:04:40.541Z,38.17
2019-02-16T03:07:10.975Z,38.22
2019-02-16T03:09:41.291Z,38.19
2019-02-16T03:12:11.612Z,38.17
2019-02-16T03:14:41.965Z,38.12
2019-02-16T03:17:13.437Z,38.14
2019-02-16T03:19:43.748Z,38.12
2019-02-16T03:22:14.058Z,38.11
2019-02-16T03:24:44.471Z,38.06
2019-02-16T03:27:37.709Z,38.10
2019-02-16T03:30:44.886Z,38.10
2019-02-16T03:33:32.683Z,38.07
2019-02-16T03:36:27.664Z,38.08
2019-02-16T03:39:17.310Z,38.06
2019-02-16T03:41:47.588Z,38.09
2019-02-16T03:44:17.843Z,38.03
2019-02-16T03:46:48.136Z,38.06
2019-02-16T03:49:18.395Z,37.97
2019-02-16T03:51:48.662Z,37.94
2019-02-16T03:54:19.016Z,37.95
2019-02-16T03:56:49.298Z,37.98
2019-02-16T03:59:19.666Z,37.90
2019-02-16T04:01:50.013Z,37.91
2019-02-16T04:04:20.380Z,37.91
2019-02-16T04:06:50.737Z,37.81
2019-02-16T04:09:21.067Z,37.86
2019-02-16T04:11:51.436Z,37.86
2019-02-16T04:14:21.733Z,37.86
2019-02-16T04:16:52.043Z,37.84
2019-02-16T04:19:22.435Z,37.82
2019-02-16T04:21:52.814Z,37.83
2019-02-16T04:24:23.222Z,37.83
2019-02-16T04:26:53.611Z,37.86
2019-02-16T04:29:24.017Z,37.83
2019-02-16T04:31:54.355Z,37.84
2019-02-16T04:34:24.650Z,37.88
2019-02-16T04:36:54.946Z,37.83
2019-02-16T04:39:25.247Z,37.79
2019-02-16T04:41:55.892Z,37.80
2019-02-16T04:44:26.209Z,37.75
2019-02-16T04:46:56.545Z,37.75
2019-02-16T04:49:26.953Z,37.71
2019-02-16T04:51:57.240Z,37.67
2019-02-16T04:54:27.516Z,37.69
2019-02-16T04:56:57.796Z,37.61
2019-02-16T04:59:28.112Z,37.63
2019-02-16T05:02:00.776Z,37.62
2019-02-16T05:04:31.160Z,37.64
2019-02-16T05:07:01.489Z,37.62
2019-02-16T05:09:31.854Z,37.61
2019-02-16T05:12:02.391Z,37.64
2019-02-16T05:14:31.902Z,37.67
2019-02-16T05:17:02.152Z,37.60
2019-02-16T05:19:32.482Z,37.61
2019-02-16T05:22:02.769Z,37.59
2019-02-16T05:24:33.194Z,37.61
2019-02-16T05:27:03.488Z,37.61
2019-02-16T05:29:33.915Z,37.56
2019-02-16T05:32:04.223Z,37.49
2019-02-16T05:34:35.073Z,37.51
2019-02-16T05:37:05.537Z,37.52
2019-02-16T05:39:35.925Z,37.49
2019-02-16T05:42:06.235Z,37.53
2019-02-16T05:44:36.627Z,37.52
2019-02-16T05:47:06.996Z,37.51
2019-02-16T05:49:37.300Z,37.51
2019-02-16T05:52:07.568Z,37.47
2019-02-16T05:54:37.984Z,37.45
2019-02-16T05:57:08.296Z,37.44
2019-02-16T05:59:38.687Z,37.45
2019-02-16T06:02:10.115Z,37.48
2019-02-16T06:04:40.442Z,37.49
2019-02-16T06:07:10.772Z,37.44
2019-02-16T06:09:41.212Z,37.43
2019-02-16T06:12:11.487Z,37.41
2019-02-16T06:14:41.828Z,37.37
2019-02-16T06:17:12.193Z,37.38
2019-02-16T06:19:43.407Z,37.40
2019-02-16T06:22:13.699Z,37.34
2019-02-16T06:24:44.005Z,37.39
2019-02-16T06:27:14.316Z,37.38
2019-02-16T06:29:44.669Z,37.39
2019-02-16T06:32:15.120Z,37.38
2019-02-16T06:34:46.600Z,37.38
2019-02-16T06:37:23.705Z,37.30
2019-02-16T06:39:54.018Z,37.31
2019-02-16T06:42:24.329Z,37.33
2019-02-16T06:44:54.765Z,37.36
2019-02-16T06:47:25.038Z,37.38
2019-02-16T06:49:55.354Z,37.33
2019-02-16T06:52:25.669Z,37.30
2019-02-16T06:54:56.010Z,37.31
2019-02-16T06:57:30.980Z,37.31
2019-02-16T07:00:01.318Z,37.28
2019-02-16T07:02:31.598Z,37.31
2019-02-16T07:05:01.902Z,37.26
2019-02-16T07:07:32.243Z,37.17
2019-02-16T07:10:02.593Z,37.23
2019-02-16T07:12:32.958Z,37.15
2019-02-16T07:15:03.208Z,37.15
2019-02-16T07:17:58.089Z,37.10
2019-02-16T07:20:28.374Z,37.09
2019-02-16T07:22:58.764Z,37.07
2019-02-16T07:25:29.144Z,37.01
2019-02-16T07:27:59.435Z,37.00
2019-02-16T07:30:30.219Z,37.02
2019-02-16T07:33:00.688Z,36.96
2019-02-16T07:35:31.026Z,36.99
2019-02-16T07:38:01.963Z,36.97
2019-02-16T07:40:32.320Z,36.94
2019-02-16T07:43:02.613Z,36.92
2019-02-16T07:45:50.555Z,36.86
2019-02-16T07:48:27.725Z,36.86
2019-02-16T07:51:20.077Z,36.88
2019-02-16T07:54:18.249Z,36.82
2019-02-16T07:56:56.040Z,36.84
2019-02-16T07:59:51.600Z,36.84
2019-02-16T08:02:56.119Z,36.82
2019-02-16T08:05:47.890Z,36.74
2019-02-16T08:08:27.140Z,36.72
2019-02-16T08:11:19.294Z,36.68
2019-02-16T08:14:08.418Z,36.68
2019-02-16T08:16:55.740Z,36.68
2019-02-16T08:19:54.022Z,36.64
2019-02-16T08:22:43.326Z,36.67
2019-02-16T08:25:38.673Z,36.61
2019-02-16T08:28:17.123Z,36.61
2019-02-16T08:31:00.627Z,36.58
2019-02-16T08:33:36.094Z,36.61
2019-02-16T08:36:19.781Z,36.64
2019-02-16T08:39:24.275Z,36.60
2019-02-16T08:42:16.659Z,36.59
2019-02-16T08:44:55.406Z,36.61
2019-02-16T08:47:35.036Z,36.64
2019-02-16T08:50:27.277Z,36.59
2019-02-16T08:53:16.641Z,36.60
2019-02-16T08:56:03.548Z,36.58
2019-02-16T08:59:01.690Z,36.60
2019-02-16T09:01:50.503Z,36.56
2019-02-16T09:04:39.841Z,36.60
2019-02-16T09:07:28.158Z,36.60
2019-02-16T09:10:18.316Z,36.59
2019-02-16T09:13:17.013Z,36.56
2019-02-16T09:16:12.561Z,36.55
2019-02-16T09:19:11.028Z,36.56
2019-02-16T09:22:03.004Z,36.58
2019-02-16T09:24:49.391Z,36.58
2019-02-16T09:27:47.813Z,36.58
2019-02-16T09:30:41.221Z,36.60
2019-02-16T09:33:28.144Z,36.60
2019-02-16T09:36:13.451Z,36.59
2019-02-16T09:39:05.900Z,36.58
2019-02-16T09:41:58.988Z,36.62
2019-02-16T09:44:52.283Z,36.64
2019-02-16T09:47:47.432Z,36.65
2019-02-16T09:50:36.647Z,36.65
2019-02-16T09:53:25.964Z,36.62
2019-02-16T09:56:14.747Z,36.63
2019-02-16T09:59:16.205Z,36.67
2019-02-16T10:02:14.221Z,36.66
2019-02-16T10:05:03.433Z,36.68
2019-02-16T10:07:44.279Z,36.71
2019-02-16T10:10:33.612Z,36.69
2019-02-16T10:13:28.738Z,36.71
2019-02-16T10:16:13.085Z,36.71
2019-02-16T10:19:11.297Z,36.74
2019-02-16T10:21:51.624Z,36.75
2019-02-16T10:24:32.869Z,36.77
2019-02-16T10:27:18.623Z,36.77
2019-02-16T10:30:17.023Z,36.79
2019-02-16T10:33:09.340Z,36.79
2019-02-16T10:35:57.412Z,36.81
2019-02-16T10:38:27.987Z,36.89
2019-02-16T10:41:13.089Z,36.88
2019-02-16T10:44:02.613Z,36.83
2019-02-16T10:46:51.806Z,36.89
2019-02-16T10:52:28.954Z,36.91
2019-02-16T10:55:12.166Z,36.94
2019-02-16T10:57:59.952Z,36.96
2019-02-16T11:00:47.661Z,36.96
2019-02-16T11:03:49.243Z,36.97
2019-02-16T11:06:51.599Z,36.98
2019-02-16T11:09:49.409Z,36.99
2019-02-16T11:12:41.417Z,37.02
2019-02-16T11:15:50.932Z,37.04
2019-02-16T11:18:49.070Z,37.04
2019-02-16T11:21:35.599Z,37.04
2019-02-16T11:24:13.406Z,37.09
2019-02-16T11:27:12.144Z,37.10
2019-02-16T11:30:01.935Z,37.11
2019-02-16T11:32:53.943Z,37.13
2019-02-16T11:35:30.418Z,37.12
2019-02-16T11:38:06.039Z,37.11
2019-02-16T11:40:51.364Z,37.13
2019-02-16T11:43:29.725Z,37.14
2019-02-16T11:46:04.391Z,37.19
2019-02-16T11:48:46.208Z,37.19
2019-02-16T11:51:35.403Z,37.20
2019-02-16T11:54:27.685Z,37.19
2019-02-16T11:57:23.179Z,37.19
2019-02-16T12:00:02.615Z,37.20
2019-02-16T12:02:52.905Z,37.23
2019-02-16T12:08:28.119Z,37.22
2019-02-16T12:11:16.079Z,37.18
2019-02-16T12:14:05.248Z,37.20
2019-02-16T12:16:44.117Z,37.21
2019-02-16T12:19:32.023Z,37.25
2019-02-16T12:22:24.276Z,37.19
2019-02-16T12:25:19.361Z,37.22
2019-02-16T12:28:21.558Z,37.23
2019-02-16T12:31:21.625Z,37.27
2019-02-16T12:34:22.961Z,37.26
2019-02-16T12:37:05.814Z,37.29
2019-02-16T12:39:43.298Z,37.28
2019-02-16T12:42:27.203Z,37.29
2019-02-16T12:45:17.433Z,37.32
2019-02-16T12:48:07.808Z,37.36
2019-02-16T12:50:56.988Z,37.38
2019-02-16T12:53:41.313Z,37.41
2019-02-16T12:56:20.523Z,37.38
2019-02-16T12:59:15.894Z,37.41
2019-02-16T13:01:53.710Z,37.42
2019-02-16T13:04:58.262Z,37.45
2019-02-16T13:07:33.956Z,37.46
2019-02-16T13:10:38.396Z,37.46
2019-02-16T13:13:30.723Z,37.47
2019-02-16T13:16:32.040Z,37.50
2019-02-16T13:19:18.078Z,37.52
2019-02-16T13:22:13.325Z,37.52
2019-02-16T13:25:02.524Z,37.56
2019-02-16T13:28:06.830Z,37.57
2019-02-16T13:30:56.146Z,37.60
2019-02-16T13:33:51.168Z,37.61
2019-02-16T13:36:49.290Z,37.58
2019-02-16T13:39:29.078Z,37.61
2019-02-16T13:42:17.287Z,37.64
2019-02-16T13:44:55.996Z,37.66
2019-02-16T13:47:39.973Z,37.68
2019-02-16T13:50:34.969Z,37.66
2019-02-16T13:53:23.358Z,37.68
2019-02-16T13:56:18.595Z,37.72
2019-02-16T13:59:10.826Z,37.77
2019-02-16T14:01:47.523Z,37.77
2019-02-16T14:04:31.323Z,37.76
2019-02-16T14:07:20.460Z,37.77
2019-02-16T14:10:07.369Z,37.79
2019-02-16T14:12:57.663Z,37.82
2019-02-16T14:15:45.627Z,37.84
2019-02-16T14:20:44.899Z,37.88
2019-02-16T14:25:46.089Z,37.87
2019-02-16T14:28:16.385Z,37.87
2019-02-16T14:30:46.725Z,37.88
2019-02-16T14:35:46.142Z,37.92
2019-02-16T14:38:36.527Z,37.93
2019-02-16T14:41:06.808Z,37.91
2019-02-16T14:43:37.996Z,37.94
2019-02-16T14:46:08.362Z,37.90
2019-02-16T14:48:38.622Z,37.94
2019-02-16T14:51:08.966Z,37.96
2019-02-16T14:53:39.189Z,37.95
2019-02-16T14:56:09.513Z,37.96
2019-02-16T14:58:39.845Z,38.01
2019-02-16T15:01:13.306Z,37.96
2019-02-16T15:03:43.602Z,38.04
2019-02-16T15:06:13.904Z,38.05
2019-02-16T15:08:44.206Z,38.04
2019-02-16T15:11:14.887Z,38.05
2019-02-16T15:13:45.232Z,38.04
2019-02-16T15:16:16.596Z,38.05
2019-02-16T15:18:46.989Z,38.06
2019-02-16T15:21:17.359Z,38.09
2019-02-16T15:23:47.667Z,38.10
2019-02-16T15:26:18.093Z,38.10
2019-02-16T15:28:48.421Z,38.10
2019-02-16T15:31:18.734Z,38.14
2019-02-16T15:33:49.102Z,38.15
2019-02-16T15:36:23.940Z,38.15
2019-02-16T15:38:51.472Z,38.14
2019-02-16T15:41:21.772Z,38.17
2019-02-16T15:43:52.098Z,38.21
2019-02-16T15:46:22.489Z,38.21
2019-02-16T15:48:52.786Z,38.21
2019-02-16T15:51:23.075Z,38.23
2019-02-16T15:53:53.376Z,38.24
2019-02-16T15:56:23.672Z,38.22
2019-02-16T15:58:54.065Z,38.23
2019-02-16T16:01:24.347Z,38.19
2019-02-16T16:03:54.574Z,38.19
2019-02-16T16:06:24.929Z,38.22
2019-02-16T16:09:03.764Z,38.20
2019-02-16T16:11:46.482Z,38.24
2019-02-16T16:14:30.296Z,38.23
2019-02-16T16:17:22.548Z,38.25
2019-02-16T16:20:01.480Z,38.28
2019-02-16T16:22:53.455Z,38.26
2019-02-16T16:25:42.834Z,38.27
2019-02-16T16:28:41.165Z,38.27
2019-02-16T16:31:21.709Z,38.27
2019-02-16T16:34:16.732Z,38.25
2019-02-16T16:37:07.867Z,38.23
2019-02-16T16:39:50.854Z,38.22
2019-02-16T16:42:47.397Z,38.23
2019-02-16T16:45:45.708Z,38.24
2019-02-16T16:48:34.048Z,38.22
2019-02-16T16:51:40.928Z,38.20
2019-02-16T16:54:17.225Z,38.21
2019-02-16T16:57:02.292Z,38.21
2019-02-16T17:00:09.878Z,38.22
2019-02-16T17:02:57.596Z,38.23
2019-02-16T17:05:44.419Z,38.20
2019-02-16T17:08:34.242Z,38.21
2019-02-16T17:11:29.761Z,38.20
2019-02-16T17:14:09.810Z,38.21
2019-02-16T17:16:56.439Z,38.17
2019-02-16T17:19:35.393Z,38.14
2019-02-16T17:22:24.650Z,38.15
2019-02-16T17:25:31.750Z,38.16
2019-02-16T17:28:16.160Z,38.11
2019-02-16T17:31:14.805Z,38.13
2019-02-16T17:33:55.436Z,38.11
2019-02-16T17:36:44.644Z,38.13
2019-02-16T17:39:27.095Z,38.10
2019-02-16T17:42:34.503Z,38.11
2019-02-16T17:45:29.431Z,38.11
2019-02-16T17:48:34.069Z,38.08
2019-02-16T17:51:26.022Z,38.08
2019-02-16T17:54:21.105Z,38.05
2019-02-16T17:57:06.923Z,38.05
2019-02-16T17:59:56.369Z,38.06
2019-02-16T18:02:45.630Z,38.05
2019-02-16T18:05:36.953Z,38.01
2019-02-16T18:08:25.257Z,38.02
2019-02-16T18:11:13.697Z,38.02
2019-02-16T18:14:06.724Z,37.99
2019-02-16T18:16:49.048Z,37.96
2019-02-16T18:19:35.482Z,37.99
2019-02-16T18:22:24.627Z,37.97
2019-02-16T18:25:08.920Z,37.90
2019-02-16T18:28:16.499Z,37.89
2019-02-16T18:31:05.730Z,37.92
2019-02-16T18:34:10.239Z,37.89
2019-02-16T18:36:53.632Z,37.90
2019-02-16T18:39:37.398Z,37.89
2019-02-16T18:42:22.378Z,37.92
2019-02-16T18:45:12.446Z,37.88
2019-02-16T18:48:02.810Z,37.84
2019-02-16T18:50:55.003Z,37.83
2019-02-16T18:53:53.224Z,37.82
2019-02-16T18:56:41.419Z,37.80
2019-02-16T18:59:36.359Z,37.79
2019-02-16T19:02:32.687Z,37.79
2019-02-16T19:05:20.933Z,37.77
2019-02-16T19:08:10.213Z,37.68
2019-02-16T19:10:49.989Z,37.19
2019-02-16T19:13:48.490Z,36.27
2019-02-16T19:16:49.866Z,36.32
2019-02-16T19:19:28.478Z,36.47
2019-02-16T19:22:14.328Z,36.48
2019-02-16T19:25:02.347Z,36.41
2019-02-16T19:27:54.156Z,36.42
2019-02-16T19:30:52.824Z,36.38
2019-02-16T19:33:42.069Z,36.39
2019-02-16T19:36:22.483Z,36.37
2019-02-16T19:39:15.357Z,36.42
2019-02-16T19:42:15.158Z,36.36
2019-02-16T19:45:17.342Z,36.34
2019-02-16T19:48:09.842Z,36.25
2019-02-16T19:50:58.838Z,36.22
2019-02-16T19:53:48.642Z,36.19
2019-02-16T19:56:43.415Z,36.12
2019-02-16T19:59:36.171Z,36.10
2019-02-16T20:02:33.379Z,36.05
2019-02-16T20:05:26.161Z,36.04
2019-02-16T20:08:15.709Z,36.05
2019-02-16T20:11:05.388Z,36.10
2019-02-16T20:14:03.007Z,36.10
2019-02-16T20:16:43.571Z,36.14
2019-02-16T20:19:26.221Z,36.20
2019-02-16T20:22:08.201Z,36.17
2019-02-16T20:24:56.386Z,36.19
2019-02-16T20:27:45.916Z,36.15
2019-02-16T20:30:29.433Z,36.18
2019-02-16T20:33:10.332Z,36.25
2019-02-16T20:36:04.876Z,36.30
2019-02-16T20:38:54.518Z,36.33
2019-02-16T20:41:39.030Z,36.34
2019-02-16T20:44:44.029Z,36.36
2019-02-16T20:47:39.951Z,36.42
2019-02-16T20:50:26.482Z,36.46
2019-02-16T20:53:13.320Z,36.50
2019-02-16T20:56:01.073Z,36.54
2019-02-16T20:58:41.671Z,36.58
2019-02-16T21:01:43.316Z,36.60
2019-02-16T21:04:27.908Z,36.61
2019-02-16T21:07:23.697Z,36.64
2019-02-16T21:10:04.448Z,36.67
2019-02-16T21:12:51.129Z,36.68
2019-02-16T21:15:46.787Z,36.72
2019-02-16T21:18:27.669Z,36.71
2019-02-16T21:21:16.879Z,36.76
2019-02-16T21:24:00.258Z,36.76
2019-02-16T21:26:52.734Z,36.81
2019-02-16T21:29:47.359Z,36.83
2019-02-16T21:32:55.119Z,36.81
2019-02-16T21:35:43.485Z,36.78
2019-02-16T21:38:41.864Z,36.80
2019-02-16T21:41:37.275Z,36.83
2019-02-16T21:44:25.528Z,36.84
2019-02-16T21:47:08.852Z,36.83
2019-02-16T21:50:03.793Z,36.84
2019-02-16T21:52:56.426Z,36.85
2019-02-16T21:56:04.343Z,36.86
2019-02-16T21:59:07.501Z,36.87
2019-02-16T22:01:59.639Z,36.88
2019-02-16T22:04:37.431Z,36.88
2019-02-16T22:07:25.378Z,36.84
2019-02-16T22:10:36.104Z,36.86
2019-02-16T22:13:06.208Z,36.85
2019-02-16T22:15:38.723Z,36.83
2019-02-16T22:18:09.322Z,36.83
2019-02-16T22:20:39.815Z,36.78
2019-02-16T22:23:10.231Z,36.81
2019-02-16T22:25:40.476Z,36.82
2019-02-16T22:28:18.263Z,36.80
2019-02-16T22:30:42.807Z,36.80
2019-02-16T22:33:13.320Z,36.79
2019-02-16T22:35:44.026Z,36.82
2019-02-16T22:38:14.414Z,36.85
2019-02-16T22:40:44.794Z,36.84
2019-02-16T22:43:15.155Z,36.83
2019-02-16T22:45:45.443Z,36.80
2019-02-16T22:48:15.820Z,36.76
2019-02-16T22:50:46.146Z,36.76
2019-02-16T22:53:16.606Z,36.79
2019-02-16T22:55:46.924Z,36.84
2019-02-16T22:58:17.437Z,36.88
2019-02-16T23:00:49.088Z,36.85
2019-02-16T23:03:21.049Z,36.83
2019-02-16T23:05:51.371Z,36.86
2019-02-16T23:08:21.639Z,36.81
2019-02-16T23:10:52.265Z,36.80
2019-02-16T23:13:22.528Z,36.73
2019-02-16T23:15:53.993Z,36.73
2019-02-16T23:18:24.417Z,36.71
2019-02-16T23:20:54.742Z,36.69
2019-02-16T23:23:25.195Z,36.68
2019-02-16T23:25:55.552Z,36.64
2019-02-16T23:28:25.949Z,36.65
2019-02-16T23:30:56.366Z,36.62
2019-02-16T23:33:26.766Z,36.59
2019-02-16T23:35:57.081Z,36.57
2019-02-16T23:38:27.423Z,36.56
2019-02-16T23:40:57.797Z,36.54
2019-02-16T23:43:28.110Z,36.55
2019-02-16T23:45:58.347Z,36.52
2019-02-16T23:48:28.690Z,36.51
2019-02-16T23:50:59.020Z,36.51
2019-02-16T23:53:29.361Z,36.48
2019-02-16T23:55:59.691Z,36.49
2019-02-16T23:58:29.925Z,36.46
